sensor_id;sensor_type;location;lat;lon;timestamp;P1;durP1;ratioP1;P2;durP2;ratioP2
49392;SDS011;35268;42.642;23.308;2022-11-15T00:01:42;66.43;;;31.73;;
49392;SDS011;35268;42.642;23.308;2022-11-15T00:04:07;65.53;;;30.55;;
49392;SDS011;35268;42.642;23.308;2022-11-15T00:06:33;74.50;;;32.00;;
49392;SDS011;35268;42.642;23.308;2022-11-15T00:08:58;72.78;;;31.88;;
49392;SDS011;35268;42.642;23.308;2022-11-15T00:11:24;63.30;;;31.05;;
49392;SDS011;35268;42.642;23.308;2022-11-15T00:13:50;63.67;;;31.92;;
49392;SDS011;35268;42.642;23.308;2022-11-15T00:16:16;68.53;;;30.20;;
49392;SDS011;35268;42.642;23.308;2022-11-15T00:18:41;70.32;;;32.22;;
49392;SDS011;35268;42.642;23.308;2022-11-15T00:21:10;68.43;;;33.35;;
49392;SDS011;35268;42.642;23.308;2022-11-15T00:23:36;74.60;;;33.33;;
49392;SDS011;35268;42.642;23.308;2022-11-15T00:26:02;67.43;;;33.40;;
49392;SDS011;35268;42.642;23.308;2022-11-15T00:28:28;80.72;;;34.72;;
49392;SDS011;35268;42.642;23.308;2022-11-15T00:30:59;73.68;;;33.40;;
49392;SDS011;35268;42.642;23.308;2022-11-15T00:33:26;61.40;;;30.13;;
49392;SDS011;35268;42.642;23.308;2022-11-15T00:35:51;63.90;;;30.40;;
49392;SDS011;35268;42.642;23.308;2022-11-15T00:38:16;59.55;;;29.13;;
49392;SDS011;35268;42.642;23.308;2022-11-15T00:40:42;71.70;;;31.60;;
49392;SDS011;35268;42.642;23.308;2022-11-15T00:43:07;62.15;;;30.42;;
49392;SDS011;35268;42.642;23.308;2022-11-15T00:45:33;60.10;;;29.02;;
49392;SDS011;35268;42.642;23.308;2022-11-15T00:47:58;54.00;;;27.60;;
49392;SDS011;35268;42.642;23.308;2022-11-15T00:50:24;64.30;;;29.52;;
49392;SDS011;35268;42.642;23.308;2022-11-15T00:52:49;59.22;;;28.95;;
49392;SDS011;35268;42.642;23.308;2022-11-15T00:55:18;63.20;;;29.45;;
49392;SDS011;35268;42.642;23.308;2022-11-15T00:57:44;60.95;;;29.88;;
49392;SDS011;35268;42.642;23.308;2022-11-15T01:00:11;61.67;;;30.23;;
49392;SDS011;35268;42.642;23.308;2022-11-15T01:02:37;70.63;;;30.05;;
49392;SDS011;35268;42.642;23.308;2022-11-15T01:05:03;65.13;;;32.05;;
49392;SDS011;35268;42.642;23.308;2022-11-15T01:07:29;64.95;;;33.67;;
49392;SDS011;35268;42.642;23.308;2022-11-15T01:09:54;72.80;;;32.40;;
49392;SDS011;35268;42.642;23.308;2022-11-15T01:12:19;62.70;;;28.83;;
49392;SDS011;35268;42.642;23.308;2022-11-15T01:14:45;65.90;;;32.03;;
49392;SDS011;35268;42.642;23.308;2022-11-15T01:17:10;68.75;;;29.23;;
49392;SDS011;35268;42.642;23.308;2022-11-15T01:19:36;61.95;;;27.55;;
49392;SDS011;35268;42.642;23.308;2022-11-15T01:22:01;66.20;;;28.50;;
49392;SDS011;35268;42.642;23.308;2022-11-15T01:24:27;59.15;;;28.20;;
49392;SDS011;35268;42.642;23.308;2022-11-15T01:26:52;61.80;;;27.83;;
49392;SDS011;35268;42.642;23.308;2022-11-15T01:29:18;60.63;;;28.20;;
49392;SDS011;35268;42.642;23.308;2022-11-15T01:31:43;54.80;;;26.85;;
49392;SDS011;35268;42.642;23.308;2022-11-15T01:34:09;52.30;;;24.88;;
49392;SDS011;35268;42.642;23.308;2022-11-15T01:36:34;59.13;;;26.30;;
49392;SDS011;35268;42.642;23.308;2022-11-15T01:39:00;60.25;;;27.15;;
49392;SDS011;35268;42.642;23.308;2022-11-15T01:41:27;49.05;;;24.98;;
49392;SDS011;35268;42.642;23.308;2022-11-15T01:44:25;51.25;;;24.95;;
49392;SDS011;35268;42.642;23.308;2022-11-15T01:47:02;68.30;;;28.02;;
49392;SDS011;35268;42.642;23.308;2022-11-15T01:49:32;47.47;;;24.38;;
49392;SDS011;35268;42.642;23.308;2022-11-15T01:52:00;57.55;;;24.85;;
49392;SDS011;35268;42.642;23.308;2022-11-15T01:54:28;61.72;;;25.17;;
49392;SDS011;35268;42.642;23.308;2022-11-15T01:57:01;55.55;;;23.35;;
49392;SDS011;35268;42.642;23.308;2022-11-15T01:59:31;47.10;;;21.15;;
49392;SDS011;35268;42.642;23.308;2022-11-15T02:01:57;48.33;;;22.52;;
49392;SDS011;35268;42.642;23.308;2022-11-15T02:06:53;33.30;;;16.65;;
49392;SDS011;35268;42.642;23.308;2022-11-15T02:09:18;39.28;;;16.80;;
49392;SDS011;35268;42.642;23.308;2022-11-15T02:11:44;34.28;;;18.38;;
49392;SDS011;35268;42.642;23.308;2022-11-15T02:14:11;44.40;;;19.25;;
49392;SDS011;35268;42.642;23.308;2022-11-15T02:16:54;44.35;;;19.15;;
49392;SDS011;35268;42.642;23.308;2022-11-15T02:30:47;52.65;;;25.77;;
49392;SDS011;35268;42.642;23.308;2022-11-15T02:33:33;63.50;;;26.30;;
49392;SDS011;35268;42.642;23.308;2022-11-15T02:36:09;58.17;;;25.88;;
49392;SDS011;35268;42.642;23.308;2022-11-15T02:38:54;50.47;;;25.00;;
49392;SDS011;35268;42.642;23.308;2022-11-15T02:44:07;59.03;;;25.00;;
49392;SDS011;35268;42.642;23.308;2022-11-15T02:46:51;52.95;;;25.70;;
49392;SDS011;35268;42.642;23.308;2022-11-15T02:49:39;54.93;;;25.00;;
49392;SDS011;35268;42.642;23.308;2022-11-15T02:52:06;54.08;;;24.88;;
49392;SDS011;35268;42.642;23.308;2022-11-15T02:54:33;51.65;;;24.67;;
49392;SDS011;35268;42.642;23.308;2022-11-15T02:57:02;54.28;;;25.58;;
49392;SDS011;35268;42.642;23.308;2022-11-15T03:02:40;46.83;;;24.05;;
49392;SDS011;35268;42.642;23.308;2022-11-15T03:05:34;45.70;;;22.83;;
49392;SDS011;35268;42.642;23.308;2022-11-15T03:13:26;60.70;;;27.95;;
49392;SDS011;35268;42.642;23.308;2022-11-15T03:16:08;58.88;;;29.25;;
49392;SDS011;35268;42.642;23.308;2022-11-15T03:19:23;70.15;;;29.10;;
49392;SDS011;35268;42.642;23.308;2022-11-15T03:21:36;58.42;;;25.80;;
49392;SDS011;35268;42.642;23.308;2022-11-15T03:24:05;50.47;;;24.73;;
49392;SDS011;35268;42.642;23.308;2022-11-15T03:26:33;49.75;;;24.88;;
49392;SDS011;35268;42.642;23.308;2022-11-15T03:29:03;49.80;;;22.88;;
49392;SDS011;35268;42.642;23.308;2022-11-15T03:31:38;60.25;;;26.55;;
49392;SDS011;35268;42.642;23.308;2022-11-15T03:36:57;73.35;;;28.25;;
49392;SDS011;35268;42.642;23.308;2022-11-15T03:39:22;88.90;;;34.13;;
49392;SDS011;35268;42.642;23.308;2022-11-15T03:44:46;94.00;;;32.67;;
49392;SDS011;35268;42.642;23.308;2022-11-15T03:47:17;86.22;;;32.38;;
49392;SDS011;35268;42.642;23.308;2022-11-15T03:49:49;121.10;;;34.38;;
49392;SDS011;35268;42.642;23.308;2022-11-15T03:52:22;107.43;;;35.40;;
49392;SDS011;35268;42.642;23.308;2022-11-15T03:54:57;82.15;;;35.10;;
49392;SDS011;35268;42.642;23.308;2022-11-15T03:57:26;83.20;;;31.35;;
49392;SDS011;35268;42.642;23.308;2022-11-15T03:59:51;91.47;;;31.38;;
49392;SDS011;35268;42.642;23.308;2022-11-15T04:02:16;82.20;;;31.20;;
49392;SDS011;35268;42.642;23.308;2022-11-15T04:04:42;74.95;;;30.30;;
49392;SDS011;35268;42.642;23.308;2022-11-15T04:07:07;103.18;;;32.13;;
49392;SDS011;35268;42.642;23.308;2022-11-15T04:09:32;75.55;;;30.33;;
49392;SDS011;35268;42.642;23.308;2022-11-15T04:11:58;82.82;;;31.70;;
49392;SDS011;35268;42.642;23.308;2022-11-15T04:14:23;103.70;;;27.98;;
49392;SDS011;35268;42.642;23.308;2022-11-15T04:16:49;79.95;;;29.38;;
49392;SDS011;35268;42.642;23.308;2022-11-15T04:19:14;76.85;;;30.40;;
49392;SDS011;35268;42.642;23.308;2022-11-15T04:21:58;74.30;;;29.13;;
49392;SDS011;35268;42.642;23.308;2022-11-15T04:24:42;62.00;;;27.52;;
49392;SDS011;35268;42.642;23.308;2022-11-15T04:27:08;71.10;;;28.23;;
49392;SDS011;35268;42.642;23.308;2022-11-15T04:29:33;87.13;;;28.65;;
49392;SDS011;35268;42.642;23.308;2022-11-15T04:31:59;54.33;;;27.67;;
49392;SDS011;35268;42.642;23.308;2022-11-15T04:34:24;57.53;;;28.13;;
49392;SDS011;35268;42.642;23.308;2022-11-15T04:36:50;66.70;;;29.90;;
49392;SDS011;35268;42.642;23.308;2022-11-15T04:39:34;74.85;;;29.73;;
49392;SDS011;35268;42.642;23.308;2022-11-15T04:41:59;100.75;;;29.80;;
49392;SDS011;35268;42.642;23.308;2022-11-15T04:44:25;143.05;;;30.83;;
49392;SDS011;35268;42.642;23.308;2022-11-15T04:46:50;73.22;;;31.42;;
49392;SDS011;35268;42.642;23.308;2022-11-15T04:49:16;91.13;;;33.25;;
49392;SDS011;35268;42.642;23.308;2022-11-15T04:51:41;124.60;;;32.25;;
49392;SDS011;35268;42.642;23.308;2022-11-15T04:54:07;124.15;;;34.22;;
49392;SDS011;35268;42.642;23.308;2022-11-15T04:56:32;111.78;;;32.97;;
49392;SDS011;35268;42.642;23.308;2022-11-15T04:58:58;101.43;;;33.85;;
49392;SDS011;35268;42.642;23.308;2022-11-15T05:01:23;130.20;;;34.25;;
49392;SDS011;35268;42.642;23.308;2022-11-15T05:03:48;147.30;;;34.33;;
49392;SDS011;35268;42.642;23.308;2022-11-15T05:06:32;171.52;;;33.85;;
49392;SDS011;35268;42.642;23.308;2022-11-15T05:08:58;209.65;;;33.08;;
49392;SDS011;35268;42.642;23.308;2022-11-15T05:11:23;184.70;;;35.75;;
49392;SDS011;35268;42.642;23.308;2022-11-15T05:13:49;268.67;;;35.20;;
49392;SDS011;35268;42.642;23.308;2022-11-15T05:16:15;167.65;;;31.45;;
49392;SDS011;35268;42.642;23.308;2022-11-15T05:18:41;220.88;;;32.28;;
49392;SDS011;35268;42.642;23.308;2022-11-15T05:21:07;233.25;;;32.25;;
49392;SDS011;35268;42.642;23.308;2022-11-15T05:23:34;153.80;;;31.35;;
49392;SDS011;35268;42.642;23.308;2022-11-15T05:26:02;201.80;;;33.75;;
49392;SDS011;35268;42.642;23.308;2022-11-15T05:28:29;268.90;;;36.00;;
49392;SDS011;35268;42.642;23.308;2022-11-15T05:31:01;173.20;;;35.03;;
49392;SDS011;35268;42.642;23.308;2022-11-15T05:33:28;105.68;;;33.70;;
49392;SDS011;35268;42.642;23.308;2022-11-15T05:36:13;89.22;;;34.92;;
49392;SDS011;35268;42.642;23.308;2022-11-15T05:38:44;76.68;;;30.80;;
49392;SDS011;35268;42.642;23.308;2022-11-15T05:41:12;91.03;;;29.85;;
49392;SDS011;35268;42.642;23.308;2022-11-15T05:43:38;91.00;;;28.75;;
49392;SDS011;35268;42.642;23.308;2022-11-15T05:46:05;83.22;;;30.50;;
49392;SDS011;35268;42.642;23.308;2022-11-15T05:48:31;100.07;;;30.42;;
49392;SDS011;35268;42.642;23.308;2022-11-15T05:50:58;73.00;;;28.25;;
49392;SDS011;35268;42.642;23.308;2022-11-15T05:53:24;84.95;;;30.58;;
49392;SDS011;35268;42.642;23.308;2022-11-15T05:55:51;94.47;;;30.55;;
49392;SDS011;35268;42.642;23.308;2022-11-15T05:58:17;102.88;;;30.80;;
49392;SDS011;35268;42.642;23.308;2022-11-15T06:00:44;123.05;;;29.13;;
49392;SDS011;35268;42.642;23.308;2022-11-15T06:03:10;126.43;;;29.73;;
49392;SDS011;35268;42.642;23.308;2022-11-15T06:05:35;141.50;;;28.75;;
49392;SDS011;35268;42.642;23.308;2022-11-15T06:08:03;152.27;;;26.30;;
49392;SDS011;35268;42.642;23.308;2022-11-15T06:10:37;104.22;;;26.67;;
49392;SDS011;35268;42.642;23.308;2022-11-15T06:13:20;141.68;;;28.23;;
49392;SDS011;35268;42.642;23.308;2022-11-15T06:15:52;147.57;;;28.58;;
49392;SDS011;35268;42.642;23.308;2022-11-15T06:18:20;197.80;;;28.95;;
49392;SDS011;35268;42.642;23.308;2022-11-15T06:20:46;205.32;;;32.95;;
49392;SDS011;35268;42.642;23.308;2022-11-15T06:23:11;170.82;;;32.47;;
49392;SDS011;35268;42.642;23.308;2022-11-15T06:25:37;135.80;;;32.47;;
49392;SDS011;35268;42.642;23.308;2022-11-15T06:28:05;170.73;;;33.95;;
49392;SDS011;35268;42.642;23.308;2022-11-15T06:30:30;139.25;;;31.85;;
49392;SDS011;35268;42.642;23.308;2022-11-15T06:33:03;126.18;;;30.90;;
49392;SDS011;35268;42.642;23.308;2022-11-15T06:35:30;143.27;;;31.80;;
49392;SDS011;35268;42.642;23.308;2022-11-15T06:38:01;122.32;;;30.85;;
49392;SDS011;35268;42.642;23.308;2022-11-15T06:40:29;90.20;;;30.50;;
49392;SDS011;35268;42.642;23.308;2022-11-15T06:43:00;93.05;;;31.38;;
49392;SDS011;35268;42.642;23.308;2022-11-15T06:45:26;160.27;;;30.65;;
49392;SDS011;35268;42.642;23.308;2022-11-15T06:47:52;131.45;;;31.45;;
49392;SDS011;35268;42.642;23.308;2022-11-15T06:50:17;108.95;;;31.35;;
49392;SDS011;35268;42.642;23.308;2022-11-15T06:52:42;96.57;;;30.05;;
49392;SDS011;35268;42.642;23.308;2022-11-15T06:55:08;110.85;;;30.70;;
49392;SDS011;35268;42.642;23.308;2022-11-15T06:57:34;157.88;;;31.00;;
49392;SDS011;35268;42.642;23.308;2022-11-15T06:59:59;122.18;;;32.72;;
49392;SDS011;35268;42.642;23.308;2022-11-15T07:02:25;112.35;;;32.33;;
49392;SDS011;35268;42.642;23.308;2022-11-15T07:04:53;96.40;;;31.88;;
49392;SDS011;35268;42.642;23.308;2022-11-15T07:07:18;91.18;;;31.35;;
49392;SDS011;35268;42.642;23.308;2022-11-15T07:09:46;114.10;;;35.60;;
49392;SDS011;35268;42.642;23.308;2022-11-15T07:12:11;108.28;;;32.30;;
49392;SDS011;35268;42.642;23.308;2022-11-15T07:14:36;109.25;;;33.40;;
49392;SDS011;35268;42.642;23.308;2022-11-15T07:17:05;98.05;;;32.13;;
49392;SDS011;35268;42.642;23.308;2022-11-15T07:19:30;106.75;;;34.45;;
49392;SDS011;35268;42.642;23.308;2022-11-15T07:21:56;102.80;;;31.98;;
49392;SDS011;35268;42.642;23.308;2022-11-15T07:24:22;82.07;;;34.58;;
49392;SDS011;35268;42.642;23.308;2022-11-15T07:26:50;124.13;;;38.10;;
49392;SDS011;35268;42.642;23.308;2022-11-15T07:29:15;146.63;;;38.08;;
49392;SDS011;35268;42.642;23.308;2022-11-15T07:31:41;154.38;;;37.70;;
49392;SDS011;35268;42.642;23.308;2022-11-15T07:34:06;116.18;;;36.33;;
49392;SDS011;35268;42.642;23.308;2022-11-15T07:36:32;118.13;;;36.60;;
49392;SDS011;35268;42.642;23.308;2022-11-15T07:38:57;103.38;;;35.08;;
49392;SDS011;35268;42.642;23.308;2022-11-15T07:41:23;125.88;;;35.53;;
49392;SDS011;35268;42.642;23.308;2022-11-15T07:43:50;89.88;;;36.00;;
49392;SDS011;35268;42.642;23.308;2022-11-15T07:46:19;105.78;;;37.08;;
49392;SDS011;35268;42.642;23.308;2022-11-15T07:48:44;101.22;;;36.75;;
49392;SDS011;35268;42.642;23.308;2022-11-15T07:51:11;98.25;;;35.67;;
49392;SDS011;35268;42.642;23.308;2022-11-15T07:53:41;173.60;;;34.05;;
49392;SDS011;35268;42.642;23.308;2022-11-15T07:56:09;146.23;;;36.50;;
49392;SDS011;35268;42.642;23.308;2022-11-15T07:58:35;96.70;;;32.33;;
49392;SDS011;35268;42.642;23.308;2022-11-15T08:01:08;163.05;;;39.50;;
49392;SDS011;35268;42.642;23.308;2022-11-15T08:03:35;129.30;;;40.58;;
49392;SDS011;35268;42.642;23.308;2022-11-15T08:06:01;157.35;;;40.85;;
49392;SDS011;35268;42.642;23.308;2022-11-15T08:08:30;128.05;;;42.53;;
49392;SDS011;35268;42.642;23.308;2022-11-15T08:10:58;214.98;;;41.80;;
49392;SDS011;35268;42.642;23.308;2022-11-15T08:13:24;164.98;;;41.17;;
49392;SDS011;35268;42.642;23.308;2022-11-15T08:15:50;172.23;;;42.53;;
49392;SDS011;35268;42.642;23.308;2022-11-15T08:18:16;120.60;;;44.33;;
49392;SDS011;35268;42.642;23.308;2022-11-15T08:20:42;143.55;;;44.13;;
49392;SDS011;35268;42.642;23.308;2022-11-15T08:23:08;220.80;;;47.17;;
49392;SDS011;35268;42.642;23.308;2022-11-15T08:25:36;143.55;;;47.53;;
49392;SDS011;35268;42.642;23.308;2022-11-15T08:28:05;126.07;;;45.25;;
49392;SDS011;35268;42.642;23.308;2022-11-15T08:30:35;197.60;;;51.92;;
49392;SDS011;35268;42.642;23.308;2022-11-15T08:33:09;182.63;;;53.50;;
49392;SDS011;35268;42.642;23.308;2022-11-15T08:35:36;160.48;;;57.83;;
49392;SDS011;35268;42.642;23.308;2022-11-15T08:38:01;167.50;;;61.78;;
49392;SDS011;35268;42.642;23.308;2022-11-15T08:40:27;188.50;;;56.28;;
49392;SDS011;35268;42.642;23.308;2022-11-15T08:42:53;172.80;;;57.28;;
49392;SDS011;35268;42.642;23.308;2022-11-15T08:45:19;189.27;;;55.35;;
49392;SDS011;35268;42.642;23.308;2022-11-15T08:47:44;150.65;;;54.15;;
49392;SDS011;35268;42.642;23.308;2022-11-15T08:50:09;181.85;;;59.22;;
49392;SDS011;35268;42.642;23.308;2022-11-15T08:52:35;162.63;;;56.03;;
49392;SDS011;35268;42.642;23.308;2022-11-15T08:55:00;195.80;;;56.60;;
49392;SDS011;35268;42.642;23.308;2022-11-15T08:57:28;158.73;;;53.35;;
49392;SDS011;35268;42.642;23.308;2022-11-15T08:59:55;165.27;;;55.63;;
49392;SDS011;35268;42.642;23.308;2022-11-15T09:02:20;177.43;;;55.63;;
49392;SDS011;35268;42.642;23.308;2022-11-15T09:04:46;170.25;;;58.20;;
49392;SDS011;35268;42.642;23.308;2022-11-15T09:07:11;175.02;;;56.88;;
49392;SDS011;35268;42.642;23.308;2022-11-15T09:09:38;174.50;;;55.50;;
49392;SDS011;35268;42.642;23.308;2022-11-15T09:12:04;147.20;;;55.13;;
49392;SDS011;35268;42.642;23.308;2022-11-15T09:14:31;167.90;;;57.13;;
49392;SDS011;35268;42.642;23.308;2022-11-15T09:16:56;159.02;;;56.20;;
49392;SDS011;35268;42.642;23.308;2022-11-15T09:19:23;153.38;;;54.05;;
49392;SDS011;35268;42.642;23.308;2022-11-15T09:21:48;144.52;;;52.75;;
49392;SDS011;35268;42.642;23.308;2022-11-15T09:24:14;140.90;;;53.67;;
49392;SDS011;35268;42.642;23.308;2022-11-15T09:26:40;151.13;;;57.50;;
49392;SDS011;35268;42.642;23.308;2022-11-15T09:29:06;148.65;;;54.00;;
49392;SDS011;35268;42.642;23.308;2022-11-15T09:31:31;167.02;;;54.90;;
49392;SDS011;35268;42.642;23.308;2022-11-15T09:33:57;163.20;;;54.08;;
49392;SDS011;35268;42.642;23.308;2022-11-15T09:36:22;152.35;;;58.75;;
49392;SDS011;35268;42.642;23.308;2022-11-15T09:38:48;150.65;;;55.63;;
49392;SDS011;35268;42.642;23.308;2022-11-15T09:49:20;168.45;;;57.45;;
49392;SDS011;35268;42.642;23.308;2022-11-15T09:51:47;140.15;;;54.05;;
49392;SDS011;35268;42.642;23.308;2022-11-15T09:54:34;137.52;;;52.97;;
49392;SDS011;35268;42.642;23.308;2022-11-15T10:00:42;139.57;;;54.28;;
49392;SDS011;35268;42.642;23.308;2022-11-15T10:05:37;141.90;;;54.78;;
49392;SDS011;35268;42.642;23.308;2022-11-15T10:08:25;149.98;;;57.65;;
49392;SDS011;35268;42.642;23.308;2022-11-15T10:11:00;140.20;;;56.08;;
49392;SDS011;35268;42.642;23.308;2022-11-15T10:13:30;135.43;;;53.92;;
49392;SDS011;35268;42.642;23.308;2022-11-15T10:16:43;150.20;;;57.90;;
49392;SDS011;35268;42.642;23.308;2022-11-15T10:21:45;158.05;;;55.50;;
49392;SDS011;35268;42.642;23.308;2022-11-15T10:24:34;134.15;;;53.88;;
49392;SDS011;35268;42.642;23.308;2022-11-15T10:27:06;152.63;;;56.72;;
49392;SDS011;35268;42.642;23.308;2022-11-15T10:29:35;152.82;;;57.20;;
49392;SDS011;35268;42.642;23.308;2022-11-15T10:32:01;141.57;;;54.92;;
49392;SDS011;35268;42.642;23.308;2022-11-15T10:34:26;152.35;;;55.92;;
49392;SDS011;35268;42.642;23.308;2022-11-15T10:36:56;148.43;;;57.42;;
49392;SDS011;35268;42.642;23.308;2022-11-15T10:39:26;136.15;;;56.03;;
49392;SDS011;35268;42.642;23.308;2022-11-15T10:41:52;136.63;;;52.47;;
49392;SDS011;35268;42.642;23.308;2022-11-15T10:44:19;130.00;;;53.42;;
49392;SDS011;35268;42.642;23.308;2022-11-15T10:51:56;129.07;;;51.28;;
49392;SDS011;35268;42.642;23.308;2022-11-15T10:54:27;114.00;;;50.15;;
49392;SDS011;35268;42.642;23.308;2022-11-15T10:56:57;125.65;;;50.60;;
49392;SDS011;35268;42.642;23.308;2022-11-15T10:59:26;127.82;;;51.67;;
49392;SDS011;35268;42.642;23.308;2022-11-15T11:01:54;116.97;;;50.35;;
49392;SDS011;35268;42.642;23.308;2022-11-15T11:04:20;125.53;;;54.30;;
49392;SDS011;35268;42.642;23.308;2022-11-15T11:07:01;108.18;;;48.63;;
49392;SDS011;35268;42.642;23.308;2022-11-15T11:09:48;115.43;;;52.50;;
49392;SDS011;35268;42.642;23.308;2022-11-15T11:12:41;110.72;;;49.50;;
49392;SDS011;35268;42.642;23.308;2022-11-15T11:15:10;109.60;;;49.20;;
49392;SDS011;35268;42.642;23.308;2022-11-15T11:20:21;108.50;;;48.10;;
49392;SDS011;35268;42.642;23.308;2022-11-15T11:48:16;100.07;;;43.80;;
49392;SDS011;35268;42.642;23.308;2022-11-15T11:50:53;92.82;;;42.03;;
49392;SDS011;35268;42.642;23.308;2022-11-15T11:53:31;87.90;;;40.13;;
49392;SDS011;35268;42.642;23.308;2022-11-15T11:56:07;79.05;;;39.20;;
49392;SDS011;35268;42.642;23.308;2022-11-15T11:58:44;89.57;;;40.70;;
49392;SDS011;35268;42.642;23.308;2022-11-15T12:09:11;86.50;;;40.45;;
49392;SDS011;35268;42.642;23.308;2022-11-15T12:17:01;95.57;;;42.70;;
49392;SDS011;35268;42.642;23.308;2022-11-15T12:19:28;93.45;;;43.00;;
49392;SDS011;35268;42.642;23.308;2022-11-15T12:22:28;106.40;;;47.28;;
49392;SDS011;35268;42.642;23.308;2022-11-15T12:29:49;103.72;;;46.35;;
49392;SDS011;35268;42.642;23.308;2022-11-15T12:34:48;86.45;;;42.65;;
49392;SDS011;35268;42.642;23.308;2022-11-15T12:44:58;97.18;;;42.50;;
49392;SDS011;35268;42.642;23.308;2022-11-15T12:47:25;96.55;;;45.78;;
49392;SDS011;35268;42.642;23.308;2022-11-15T12:49:51;96.57;;;46.10;;
49392;SDS011;35268;42.642;23.308;2022-11-15T12:52:17;90.72;;;43.20;;
49392;SDS011;35268;42.642;23.308;2022-11-15T12:54:51;92.88;;;45.72;;
49392;SDS011;35268;42.642;23.308;2022-11-15T13:02:26;102.55;;;42.85;;
49392;SDS011;35268;42.642;23.308;2022-11-15T13:05:25;97.00;;;43.00;;
49392;SDS011;35268;42.642;23.308;2022-11-15T13:07:54;107.25;;;47.47;;
49392;SDS011;35268;42.642;23.308;2022-11-15T13:12:51;100.93;;;45.47;;
49392;SDS011;35268;42.642;23.308;2022-11-15T13:20:44;94.15;;;48.78;;
49392;SDS011;35268;42.642;23.308;2022-11-15T13:23:11;113.05;;;57.45;;
49392;SDS011;35268;42.642;23.308;2022-11-15T13:25:52;109.57;;;51.88;;
49392;SDS011;35268;42.642;23.308;2022-11-15T13:28:31;109.65;;;52.28;;
49392;SDS011;35268;42.642;23.308;2022-11-15T13:34:40;88.28;;;42.97;;
49392;SDS011;35268;42.642;23.308;2022-11-15T13:37:00;90.43;;;40.78;;
49392;SDS011;35268;42.642;23.308;2022-11-15T13:39:30;81.88;;;44.08;;
49392;SDS011;35268;42.642;23.308;2022-11-15T13:41:57;86.35;;;42.50;;
49392;SDS011;35268;42.642;23.308;2022-11-15T13:44:27;102.00;;;44.72;;
49392;SDS011;35268;42.642;23.308;2022-11-15T13:47:02;99.57;;;47.03;;
49392;SDS011;35268;42.642;23.308;2022-11-15T13:49:31;79.78;;;39.83;;
49392;SDS011;35268;42.642;23.308;2022-11-15T13:51:58;85.05;;;42.38;;
49392;SDS011;35268;42.642;23.308;2022-11-15T13:59:45;84.00;;;40.65;;
49392;SDS011;35268;42.642;23.308;2022-11-15T14:02:18;91.32;;;42.55;;
49392;SDS011;35268;42.642;23.308;2022-11-15T14:04:53;79.28;;;41.50;;
49392;SDS011;35268;42.642;23.308;2022-11-15T14:07:22;87.28;;;41.50;;
49392;SDS011;35268;42.642;23.308;2022-11-15T14:09:50;89.55;;;42.78;;
49392;SDS011;35268;42.642;23.308;2022-11-15T14:14:58;80.28;;;40.67;;
49392;SDS011;35268;42.642;23.308;2022-11-15T14:19:54;86.15;;;43.22;;
49392;SDS011;35268;42.642;23.308;2022-11-15T14:22:37;80.95;;;41.78;;
49392;SDS011;35268;42.642;23.308;2022-11-15T14:25:17;89.90;;;43.60;;
49392;SDS011;35268;42.642;23.308;2022-11-15T14:27:45;96.40;;;42.92;;
49392;SDS011;35268;42.642;23.308;2022-11-15T14:30:38;99.45;;;46.40;;
49392;SDS011;35268;42.642;23.308;2022-11-15T14:36:05;109.07;;;47.22;;
49392;SDS011;35268;42.642;23.308;2022-11-15T14:38:38;111.68;;;48.60;;
49392;SDS011;35268;42.642;23.308;2022-11-15T14:41:04;113.32;;;50.78;;
49392;SDS011;35268;42.642;23.308;2022-11-15T14:43:30;96.07;;;47.13;;
49392;SDS011;35268;42.642;23.308;2022-11-15T14:45:56;104.75;;;46.95;;
49392;SDS011;35268;42.642;23.308;2022-11-15T14:48:22;100.13;;;47.50;;
49392;SDS011;35268;42.642;23.308;2022-11-15T14:50:47;120.80;;;50.97;;
49392;SDS011;35268;42.642;23.308;2022-11-15T14:53:16;108.68;;;48.70;;
49392;SDS011;35268;42.642;23.308;2022-11-15T14:55:42;105.85;;;48.78;;
49392;SDS011;35268;42.642;23.308;2022-11-15T14:58:08;102.05;;;49.05;;
49392;SDS011;35268;42.642;23.308;2022-11-15T15:00:34;117.40;;;54.05;;
49392;SDS011;35268;42.642;23.308;2022-11-15T15:03:04;118.00;;;53.50;;
49392;SDS011;35268;42.642;23.308;2022-11-15T15:05:35;110.15;;;48.75;;
49392;SDS011;35268;42.642;23.308;2022-11-15T15:08:08;109.88;;;49.65;;
49392;SDS011;35268;42.642;23.308;2022-11-15T15:10:35;105.38;;;51.28;;
49392;SDS011;35268;42.642;23.308;2022-11-15T15:13:02;108.90;;;51.63;;
49392;SDS011;35268;42.642;23.308;2022-11-15T15:15:33;113.07;;;54.25;;
49392;SDS011;35268;42.642;23.308;2022-11-15T15:20:27;126.28;;;56.35;;
49392;SDS011;35268;42.642;23.308;2022-11-15T15:22:53;127.70;;;53.28;;
49392;SDS011;35268;42.642;23.308;2022-11-15T15:27:47;126.95;;;55.58;;
49392;SDS011;35268;42.642;23.308;2022-11-15T15:30:13;114.18;;;56.60;;
49392;SDS011;35268;42.642;23.308;2022-11-15T15:32:38;112.90;;;55.05;;
49392;SDS011;35268;42.642;23.308;2022-11-15T15:35:04;115.57;;;57.45;;
49392;SDS011;35268;42.642;23.308;2022-11-15T15:37:30;136.38;;;61.22;;
49392;SDS011;35268;42.642;23.308;2022-11-15T15:39:58;123.57;;;57.60;;
49392;SDS011;35268;42.642;23.308;2022-11-15T15:42:24;118.32;;;54.92;;
49392;SDS011;35268;42.642;23.308;2022-11-15T15:44:50;115.70;;;52.80;;
49392;SDS011;35268;42.642;23.308;2022-11-15T15:47:18;116.78;;;51.97;;
49392;SDS011;35268;42.642;23.308;2022-11-15T15:49:46;119.78;;;52.63;;
49392;SDS011;35268;42.642;23.308;2022-11-15T15:52:12;123.75;;;56.60;;
49392;SDS011;35268;42.642;23.308;2022-11-15T15:54:38;122.80;;;54.63;;
49392;SDS011;35268;42.642;23.308;2022-11-15T15:57:03;127.10;;;55.58;;
49392;SDS011;35268;42.642;23.308;2022-11-15T15:59:30;122.40;;;56.92;;
49392;SDS011;35268;42.642;23.308;2022-11-15T16:01:55;140.80;;;62.30;;
49392;SDS011;35268;42.642;23.308;2022-11-15T16:04:21;136.18;;;60.70;;
49392;SDS011;35268;42.642;23.308;2022-11-15T16:06:46;112.25;;;53.33;;
49392;SDS011;35268;42.642;23.308;2022-11-15T16:09:16;133.68;;;61.22;;
49392;SDS011;35268;42.642;23.308;2022-11-15T16:11:43;125.28;;;60.20;;
49392;SDS011;35268;42.642;23.308;2022-11-15T16:14:09;124.30;;;58.10;;
49392;SDS011;35268;42.642;23.308;2022-11-15T16:16:35;144.77;;;66.30;;
49392;SDS011;35268;42.642;23.308;2022-11-15T16:19:01;128.38;;;59.90;;
49392;SDS011;35268;42.642;23.308;2022-11-15T16:21:28;128.23;;;59.28;;
49392;SDS011;35268;42.642;23.308;2022-11-15T16:23:53;117.18;;;57.92;;
49392;SDS011;35268;42.642;23.308;2022-11-15T16:26:26;126.75;;;58.95;;
49392;SDS011;35268;42.642;23.308;2022-11-15T16:28:53;114.18;;;53.85;;
49392;SDS011;35268;42.642;23.308;2022-11-15T16:31:19;114.32;;;51.58;;
49392;SDS011;35268;42.642;23.308;2022-11-15T16:33:48;92.78;;;47.80;;
49392;SDS011;35268;42.642;23.308;2022-11-15T16:38:46;108.35;;;46.65;;